sensor_id;sensor_type;location;lat;lon;timestamp;P1;durP1;ratioP1;P2;durP2;ratioP2
24337;SDS011;12457;50.832;4.346;2022-09-13T00:01:14;12.07;;;5.72;;
24337;SDS011;12457;50.832;4.346;2022-09-13T00:03:40;11.65;;;5.47;;
24337;SDS011;12457;50.832;4.346;2022-09-13T00:06:16;12.77;;;4.82;;
24337;SDS011;12457;50.832;4.346;2022-09-13T00:08:43;11.43;;;4.72;;
24337;SDS011;12457;50.832;4.346;2022-09-13T00:11:16;8.38;;;5.03;;
24337;SDS011;12457;50.832;4.346;2022-09-13T00:16:11;12.63;;;4.68;;
24337;SDS011;12457;50.832;4.346;2022-09-13T00:18:38;8.90;;;4.68;;
24337;SDS011;12457;50.832;4.346;2022-09-13T00:21:08;7.45;;;4.43;;
24337;SDS011;12457;50.832;4.346;2022-09-13T00:23:38;13.60;;;5.50;;
24337;SDS011;12457;50.832;4.346;2022-09-13T00:26:10;13.85;;;5.20;;
24337;SDS011;12457;50.832;4.346;2022-09-13T00:28:37;9.70;;;4.82;;
24337;SDS011;12457;50.832;4.346;2022-09-13T00:31:05;9.40;;;4.50;;
24337;SDS011;12457;50.832;4.346;2022-09-13T00:33:32;12.00;;;4.07;;
24337;SDS011;12457;50.832;4.346;2022-09-13T00:36:08;8.38;;;4.05;;
24337;SDS011;12457;50.832;4.346;2022-09-13T00:38:38;8.95;;;4.25;;
24337;SDS011;12457;50.832;4.346;2022-09-13T00:41:05;8.43;;;3.85;;
24337;SDS011;12457;50.832;4.346;2022-09-13T00:43:43;5.43;;;3.40;;
24337;SDS011;12457;50.832;4.346;2022-09-13T00:46:15;8.30;;;4.00;;
24337;SDS011;12457;50.832;4.346;2022-09-13T00:49:13;8.88;;;3.45;;
24337;SDS011;12457;50.832;4.346;2022-09-13T00:55:05;10.00;;;3.47;;
24337;SDS011;12457;50.832;4.346;2022-09-13T00:57:40;6.95;;;3.00;;
24337;SDS011;12457;50.832;4.346;2022-09-13T01:00:11;6.80;;;3.40;;
24337;SDS011;12457;50.832;4.346;2022-09-13T01:02:39;6.53;;;2.70;;
24337;SDS011;12457;50.832;4.346;2022-09-13T01:05:29;5.47;;;2.53;;
24337;SDS011;12457;50.832;4.346;2022-09-13T01:07:58;4.47;;;2.05;;
24337;SDS011;12457;50.832;4.346;2022-09-13T01:10:25;2.28;;;1.70;;
24337;SDS011;12457;50.832;4.346;2022-09-13T01:13:00;2.72;;;2.05;;
24337;SDS011;12457;50.832;4.346;2022-09-13T01:15:37;5.28;;;1.70;;
24337;SDS011;12457;50.832;4.346;2022-09-13T01:18:03;2.05;;;1.60;;
24337;SDS011;12457;50.832;4.346;2022-09-13T01:23:29;2.58;;;1.73;;
24337;SDS011;12457;50.832;4.346;2022-09-13T01:31:43;6.15;;;1.92;;
24337;SDS011;12457;50.832;4.346;2022-09-13T01:34:45;2.70;;;1.73;;
24337;SDS011;12457;50.832;4.346;2022-09-13T01:37:39;2.85;;;1.40;;
24337;SDS011;12457;50.832;4.346;2022-09-13T01:40:45;4.30;;;2.20;;
24337;SDS011;12457;50.832;4.346;2022-09-13T01:43:24;3.13;;;1.65;;
24337;SDS011;12457;50.832;4.346;2022-09-13T01:46:07;4.50;;;1.65;;
24337;SDS011;12457;50.832;4.346;2022-09-13T01:54:47;5.13;;;1.60;;
24337;SDS011;12457;50.832;4.346;2022-09-13T02:00:55;4.38;;;1.65;;
24337;SDS011;12457;50.832;4.346;2022-09-13T02:03:43;3.83;;;2.15;;
24337;SDS011;12457;50.832;4.346;2022-09-13T02:06:21;4.22;;;2.50;;
24337;SDS011;12457;50.832;4.346;2022-09-13T02:08:53;6.43;;;2.60;;
24337;SDS011;12457;50.832;4.346;2022-09-13T02:11:24;5.50;;;3.00;;
24337;SDS011;12457;50.832;4.346;2022-09-13T02:13:54;7.15;;;3.15;;
24337;SDS011;12457;50.832;4.346;2022-09-13T02:16:37;5.15;;;2.70;;
24337;SDS011;12457;50.832;4.346;2022-09-13T02:19:10;6.25;;;2.70;;
24337;SDS011;12457;50.832;4.346;2022-09-13T02:21:41;4.20;;;2.90;;
24337;SDS011;12457;50.832;4.346;2022-09-13T02:24:11;5.72;;;3.08;;
24337;SDS011;12457;50.832;4.346;2022-09-13T02:26:40;5.82;;;3.10;;
24337;SDS011;12457;50.832;4.346;2022-09-13T02:29:11;6.03;;;3.13;;
24337;SDS011;12457;50.832;4.346;2022-09-13T02:31:45;5.45;;;2.88;;
24337;SDS011;12457;50.832;4.346;2022-09-13T02:34:20;5.38;;;2.42;;
24337;SDS011;12457;50.832;4.346;2022-09-13T02:36:47;4.95;;;2.88;;
24337;SDS011;12457;50.832;4.346;2022-09-13T02:42:18;4.35;;;2.78;;
24337;SDS011;12457;50.832;4.346;2022-09-13T02:44:50;8.00;;;2.70;;
24337;SDS011;12457;50.832;4.346;2022-09-13T02:48:03;9.88;;;2.75;;
24337;SDS011;12457;50.832;4.346;2022-09-13T02:56:02;8.48;;;2.85;;
24337;SDS011;12457;50.832;4.346;2022-09-13T02:58:44;5.43;;;3.15;;
24337;SDS011;12457;50.832;4.346;2022-09-13T03:01:20;5.10;;;2.88;;
24337;SDS011;12457;50.832;4.346;2022-09-13T03:03:46;5.47;;;2.92;;
24337;SDS011;12457;50.832;4.346;2022-09-13T03:06:12;3.72;;;2.85;;
24337;SDS011;12457;50.832;4.346;2022-09-13T03:08:45;3.35;;;2.65;;
24337;SDS011;12457;50.832;4.346;2022-09-13T03:14:11;4.10;;;2.90;;
24337;SDS011;12457;50.832;4.346;2022-09-13T03:25:35;6.50;;;3.17;;
24337;SDS011;12457;50.832;4.346;2022-09-13T03:31:11;9.40;;;3.47;;
24337;SDS011;12457;50.832;4.346;2022-09-13T03:39:00;6.82;;;3.30;;
24337;SDS011;12457;50.832;4.346;2022-09-13T03:41:33;7.90;;;3.65;;
24337;SDS011;12457;50.832;4.346;2022-09-13T03:44:09;12.18;;;3.38;;
24337;SDS011;12457;50.832;4.346;2022-09-13T03:46:41;5.22;;;3.15;;
24337;SDS011;12457;50.832;4.346;2022-09-13T03:49:11;6.70;;;2.95;;
24337;SDS011;12457;50.832;4.346;2022-09-13T03:51:40;5.85;;;3.45;;
24337;SDS011;12457;50.832;4.346;2022-09-13T03:54:30;3.25;;;2.50;;
24337;SDS011;12457;50.832;4.346;2022-09-13T03:57:09;5.60;;;2.63;;
24337;SDS011;12457;50.832;4.346;2022-09-13T03:59:38;11.88;;;2.92;;
24337;SDS011;12457;50.832;4.346;2022-09-13T04:02:07;4.95;;;2.72;;
24337;SDS011;12457;50.832;4.346;2022-09-13T04:04:35;3.63;;;2.58;;
24337;SDS011;12457;50.832;4.346;2022-09-13T04:07:02;4.10;;;2.63;;
24337;SDS011;12457;50.832;4.346;2022-09-13T04:09:28;4.07;;;2.75;;
24337;SDS011;12457;50.832;4.346;2022-09-13T04:11:55;4.43;;;2.65;;
24337;SDS011;12457;50.832;4.346;2022-09-13T04:14:21;5.60;;;2.75;;
24337;SDS011;12457;50.832;4.346;2022-09-13T04:16:50;3.33;;;2.40;;
24337;SDS011;12457;50.832;4.346;2022-09-13T04:19:20;4.95;;;2.42;;
24337;SDS011;12457;50.832;4.346;2022-09-13T04:21:46;6.60;;;2.70;;
24337;SDS011;12457;50.832;4.346;2022-09-13T04:24:19;4.60;;;2.60;;
24337;SDS011;12457;50.832;4.346;2022-09-13T04:26:48;8.70;;;3.00;;
24337;SDS011;12457;50.832;4.346;2022-09-13T04:29:15;4.72;;;2.42;;
24337;SDS011;12457;50.832;4.346;2022-09-13T04:31:42;5.85;;;4.30;;
24337;SDS011;12457;50.832;4.346;2022-09-13T04:34:09;7.35;;;3.70;;
24337;SDS011;12457;50.832;4.346;2022-09-13T04:36:34;5.75;;;3.03;;
24337;SDS011;12457;50.832;4.346;2022-09-13T04:39:00;6.05;;;2.95;;
24337;SDS011;12457;50.832;4.346;2022-09-13T04:41:26;6.57;;;2.70;;
24337;SDS011;12457;50.832;4.346;2022-09-13T04:43:53;13.95;;;4.80;;
24337;SDS011;12457;50.832;4.346;2022-09-13T04:46:18;5.78;;;3.35;;
24337;SDS011;12457;50.832;4.346;2022-09-13T04:48:48;5.93;;;3.58;;
24337;SDS011;12457;50.832;4.346;2022-09-13T04:51:14;8.40;;;3.50;;
24337;SDS011;12457;50.832;4.346;2022-09-13T04:53:41;6.88;;;3.85;;
24337;SDS011;12457;50.832;4.346;2022-09-13T04:56:10;4.85;;;3.20;;
24337;SDS011;12457;50.832;4.346;2022-09-13T04:58:41;6.90;;;3.65;;
24337;SDS011;12457;50.832;4.346;2022-09-13T05:01:07;7.93;;;3.88;;
24337;SDS011;12457;50.832;4.346;2022-09-13T05:03:34;12.35;;;4.10;;
24337;SDS011;12457;50.832;4.346;2022-09-13T05:06:04;7.38;;;4.18;;
24337;SDS011;12457;50.832;4.346;2022-09-13T05:08:50;6.82;;;3.58;;
24337;SDS011;12457;50.832;4.346;2022-09-13T05:11:19;7.85;;;3.60;;
24337;SDS011;12457;50.832;4.346;2022-09-13T05:13:49;9.68;;;4.32;;
24337;SDS011;12457;50.832;4.346;2022-09-13T05:16:19;13.18;;;4.20;;
24337;SDS011;12457;50.832;4.346;2022-09-13T05:18:46;6.97;;;3.90;;
24337;SDS011;12457;50.832;4.346;2022-09-13T05:21:12;12.43;;;3.78;;
24337;SDS011;12457;50.832;4.346;2022-09-13T05:26:47;6.15;;;4.18;;
24337;SDS011;12457;50.832;4.346;2022-09-13T05:29:13;8.13;;;4.60;;
24337;SDS011;12457;50.832;4.346;2022-09-13T05:31:40;8.10;;;4.35;;
24337;SDS011;12457;50.832;4.346;2022-09-13T05:34:08;9.07;;;4.22;;
24337;SDS011;12457;50.832;4.346;2022-09-13T05:36:38;11.98;;;5.13;;
24337;SDS011;12457;50.832;4.346;2022-09-13T05:39:11;13.65;;;4.80;;
24337;SDS011;12457;50.832;4.346;2022-09-13T05:41:38;8.40;;;4.68;;
24337;SDS011;12457;50.832;4.346;2022-09-13T05:44:04;9.50;;;4.40;;
24337;SDS011;12457;50.832;4.346;2022-09-13T05:46:29;9.80;;;4.28;;
24337;SDS011;12457;50.832;4.346;2022-09-13T05:48:58;9.75;;;4.35;;
24337;SDS011;12457;50.832;4.346;2022-09-13T05:51:23;20.10;;;5.10;;
24337;SDS011;12457;50.832;4.346;2022-09-13T05:53:50;7.75;;;4.65;;
24337;SDS011;12457;50.832;4.346;2022-09-13T05:56:36;13.93;;;4.85;;
24337;SDS011;12457;50.832;4.346;2022-09-13T05:59:02;8.50;;;4.80;;
24337;SDS011;12457;50.832;4.346;2022-09-13T06:01:27;9.82;;;4.97;;
24337;SDS011;12457;50.832;4.346;2022-09-13T06:03:54;9.10;;;4.50;;
24337;SDS011;12457;50.832;4.346;2022-09-13T06:06:21;11.98;;;5.57;;
24337;SDS011;12457;50.832;4.346;2022-09-13T06:08:51;16.40;;;4.90;;
24337;SDS011;12457;50.832;4.346;2022-09-13T06:11:17;15.80;;;5.70;;
24337;SDS011;12457;50.832;4.346;2022-09-13T06:13:44;15.20;;;5.50;;
24337;SDS011;12457;50.832;4.346;2022-09-13T06:16:10;13.10;;;5.57;;
24337;SDS011;12457;50.832;4.346;2022-09-13T06:18:37;11.25;;;6.57;;
24337;SDS011;12457;50.832;4.346;2022-09-13T06:23:30;14.93;;;5.18;;
24337;SDS011;12457;50.832;4.346;2022-09-13T06:25:59;7.35;;;5.15;;
24337;SDS011;12457;50.832;4.346;2022-09-13T06:28:26;9.43;;;4.47;;
24337;SDS011;12457;50.832;4.346;2022-09-13T06:30:51;17.05;;;5.30;;
24337;SDS011;12457;50.832;4.346;2022-09-13T06:33:23;13.52;;;5.53;;
24337;SDS011;12457;50.832;4.346;2022-09-13T06:35:48;14.40;;;5.88;;
24337;SDS011;12457;50.832;4.346;2022-09-13T06:38:14;12.07;;;5.72;;
24337;SDS011;12457;50.832;4.346;2022-09-13T06:40:40;10.05;;;5.28;;
24337;SDS011;12457;50.832;4.346;2022-09-13T06:43:07;10.00;;;5.38;;
24337;SDS011;12457;50.832;4.346;2022-09-13T06:45:32;12.88;;;5.60;;
24337;SDS011;12457;50.832;4.346;2022-09-13T06:47:58;11.35;;;5.82;;
24337;SDS011;12457;50.832;4.346;2022-09-13T06:50:24;10.85;;;6.13;;
24337;SDS011;12457;50.832;4.346;2022-09-13T06:52:49;13.32;;;6.03;;
24337;SDS011;12457;50.832;4.346;2022-09-13T06:55:15;11.85;;;5.93;;
24337;SDS011;12457;50.832;4.346;2022-09-13T06:57:41;16.52;;;6.15;;
24337;SDS011;12457;50.832;4.346;2022-09-13T07:00:10;15.65;;;6.70;;
24337;SDS011;12457;50.832;4.346;2022-09-13T07:02:37;27.10;;;9.57;;
24337;SDS011;12457;50.832;4.346;2022-09-13T07:05:03;20.17;;;7.50;;
24337;SDS011;12457;50.832;4.346;2022-09-13T07:07:29;28.95;;;9.73;;
24337;SDS011;12457;50.832;4.346;2022-09-13T07:09:55;22.27;;;8.15;;
24337;SDS011;12457;50.832;4.346;2022-09-13T07:12:21;20.08;;;7.72;;
24337;SDS011;12457;50.832;4.346;2022-09-13T07:14:46;18.45;;;7.28;;
24337;SDS011;12457;50.832;4.346;2022-09-13T07:17:12;16.67;;;6.35;;
24337;SDS011;12457;50.832;4.346;2022-09-13T07:19:37;10.02;;;5.50;;
24337;SDS011;12457;50.832;4.346;2022-09-13T07:22:04;12.25;;;7.00;;
24337;SDS011;12457;50.832;4.346;2022-09-13T07:24:30;21.40;;;6.88;;
24337;SDS011;12457;50.832;4.346;2022-09-13T07:26:56;20.35;;;6.60;;
24337;SDS011;12457;50.832;4.346;2022-09-13T07:29:22;14.93;;;7.03;;
24337;SDS011;12457;50.832;4.346;2022-09-13T07:31:52;20.67;;;5.63;;
24337;SDS011;12457;50.832;4.346;2022-09-13T07:34:19;20.50;;;6.22;;
24337;SDS011;12457;50.832;4.346;2022-09-13T07:36:49;11.63;;;6.00;;
24337;SDS011;12457;50.832;4.346;2022-09-13T07:39:16;15.13;;;6.50;;
24337;SDS011;12457;50.832;4.346;2022-09-13T07:41:43;15.45;;;6.28;;
24337;SDS011;12457;50.832;4.346;2022-09-13T07:44:12;20.15;;;5.35;;
24337;SDS011;12457;50.832;4.346;2022-09-13T07:46:39;11.32;;;5.53;;
24337;SDS011;12457;50.832;4.346;2022-09-13T07:49:07;18.58;;;5.75;;
24337;SDS011;12457;50.832;4.346;2022-09-13T07:51:35;13.52;;;4.40;;
24337;SDS011;12457;50.832;4.346;2022-09-13T07:54:04;13.80;;;4.47;;
24337;SDS011;12457;50.832;4.346;2022-09-13T07:56:32;10.52;;;3.72;;
24337;SDS011;12457;50.832;4.346;2022-09-13T07:59:00;13.05;;;4.32;;
24337;SDS011;12457;50.832;4.346;2022-09-13T08:01:38;13.82;;;4.85;;
24337;SDS011;12457;50.832;4.346;2022-09-13T08:04:24;10.98;;;5.88;;
24337;SDS011;12457;50.832;4.346;2022-09-13T08:06:50;8.93;;;3.53;;
24337;SDS011;12457;50.832;4.346;2022-09-13T08:09:16;12.05;;;4.32;;
24337;SDS011;12457;50.832;4.346;2022-09-13T08:11:43;9.07;;;4.00;;
24337;SDS011;12457;50.832;4.346;2022-09-13T08:14:13;14.45;;;4.63;;
24337;SDS011;12457;50.832;4.346;2022-09-13T08:16:40;14.70;;;5.47;;
24337;SDS011;12457;50.832;4.346;2022-09-13T08:19:06;11.50;;;5.60;;
24337;SDS011;12457;50.832;4.346;2022-09-13T08:21:35;11.60;;;5.10;;
24337;SDS011;12457;50.832;4.346;2022-09-13T08:24:03;16.52;;;5.82;;
24337;SDS011;12457;50.832;4.346;2022-09-13T08:26:30;16.15;;;5.65;;
24337;SDS011;12457;50.832;4.346;2022-09-13T08:28:58;13.90;;;6.57;;
24337;SDS011;12457;50.832;4.346;2022-09-13T08:31:26;12.77;;;4.63;;
24337;SDS011;12457;50.832;4.346;2022-09-13T08:33:52;10.88;;;4.93;;
24337;SDS011;12457;50.832;4.346;2022-09-13T08:36:18;10.43;;;4.50;;
24337;SDS011;12457;50.832;4.346;2022-09-13T08:38:48;21.65;;;4.80;;
24337;SDS011;12457;50.832;4.346;2022-09-13T08:44:47;14.38;;;7.50;;
24337;SDS011;12457;50.832;4.346;2022-09-13T08:49:45;12.30;;;4.80;;
24337;SDS011;12457;50.832;4.346;2022-09-13T08:55:01;10.60;;;4.38;;
24337;SDS011;12457;50.832;4.346;2022-09-13T08:57:59;18.20;;;4.85;;
24337;SDS011;12457;50.832;4.346;2022-09-13T09:00:48;10.45;;;4.95;;
24337;SDS011;12457;50.832;4.346;2022-09-13T09:03:20;17.45;;;6.68;;
24337;SDS011;12457;50.832;4.346;2022-09-13T09:06:11;12.50;;;4.97;;
24337;SDS011;12457;50.832;4.346;2022-09-13T09:14:19;18.33;;;5.70;;
24337;SDS011;12457;50.832;4.346;2022-09-13T09:19:32;16.10;;;5.90;;
24337;SDS011;12457;50.832;4.346;2022-09-13T09:22:05;24.27;;;6.38;;
24337;SDS011;12457;50.832;4.346;2022-09-13T09:24:55;18.58;;;5.28;;
24337;SDS011;12457;50.832;4.346;2022-09-13T09:27:21;14.98;;;5.35;;
24337;SDS011;12457;50.832;4.346;2022-09-13T09:29:51;13.90;;;5.32;;
24337;SDS011;12457;50.832;4.346;2022-09-13T09:37:45;13.07;;;4.90;;
24337;SDS011;12457;50.832;4.346;2022-09-13T09:40:21;8.48;;;4.22;;
24337;SDS011;12457;50.832;4.346;2022-09-13T09:42:48;16.73;;;4.40;;
24337;SDS011;12457;50.832;4.346;2022-09-13T09:45:24;12.90;;;4.43;;
24337;SDS011;12457;50.832;4.346;2022-09-13T09:47:59;11.38;;;4.72;;
24337;SDS011;12457;50.832;4.346;2022-09-13T09:50:32;12.02;;;4.55;;
24337;SDS011;12457;50.832;4.346;2022-09-13T09:53:13;13.32;;;5.40;;
24337;SDS011;12457;50.832;4.346;2022-09-13T09:55:49;14.30;;;4.88;;
24337;SDS011;12457;50.832;4.346;2022-09-13T10:01:23;23.90;;;5.05;;
24337;SDS011;12457;50.832;4.346;2022-09-13T10:06:32;14.32;;;4.57;;
24337;SDS011;12457;50.832;4.346;2022-09-13T10:09:00;17.50;;;4.80;;
24337;SDS011;12457;50.832;4.346;2022-09-13T10:19:31;12.85;;;3.95;;
24337;SDS011;12457;50.832;4.346;2022-09-13T10:22:09;11.65;;;3.83;;
24337;SDS011;12457;50.832;4.346;2022-09-13T10:24:36;21.35;;;3.92;;
24337;SDS011;12457;50.832;4.346;2022-09-13T10:27:02;13.95;;;4.30;;
24337;SDS011;12457;50.832;4.346;2022-09-13T10:29:42;17.80;;;4.10;;
24337;SDS011;12457;50.832;4.346;2022-09-13T10:32:15;18.60;;;3.90;;
24337;SDS011;12457;50.832;4.346;2022-09-13T10:34:43;9.75;;;2.95;;
24337;SDS011;12457;50.832;4.346;2022-09-13T10:39:36;18.58;;;5.15;;
24337;SDS011;12457;50.832;4.346;2022-09-13T10:42:14;17.63;;;4.00;;
24337;SDS011;12457;50.832;4.346;2022-09-13T10:45:06;15.93;;;3.72;;
24337;SDS011;12457;50.832;4.346;2022-09-13T10:47:33;16.40;;;4.20;;
24337;SDS011;12457;50.832;4.346;2022-09-13T10:50:10;8.18;;;3.42;;
24337;SDS011;12457;50.832;4.346;2022-09-13T10:52:58;14.43;;;4.53;;
24337;SDS011;12457;50.832;4.346;2022-09-13T10:55:29;16.77;;;3.75;;
24337;SDS011;12457;50.832;4.346;2022-09-13T11:00:57;18.60;;;5.10;;
24337;SDS011;12457;50.832;4.346;2022-09-13T11:03:35;16.73;;;4.30;;
24337;SDS011;12457;50.832;4.346;2022-09-13T11:06:15;15.88;;;4.70;;
24337;SDS011;12457;50.832;4.346;2022-09-13T11:19:30;11.30;;;3.83;;
24337;SDS011;12457;50.832;4.346;2022-09-13T11:27:27;14.73;;;5.55;;
24337;SDS011;12457;50.832;4.346;2022-09-13T11:57:29;10.68;;;5.75;;
24337;SDS011;12457;50.832;4.346;2022-09-13T11:59:57;18.48;;;5.43;;
24337;SDS011;12457;50.832;4.346;2022-09-13T12:02:43;20.38;;;7.50;;
24337;SDS011;12457;50.832;4.346;2022-09-13T12:05:25;14.20;;;5.63;;
24337;SDS011;12457;50.832;4.346;2022-09-13T12:08:03;8.18;;;3.80;;
24337;SDS011;12457;50.832;4.346;2022-09-13T12:10:38;11.38;;;3.83;;
24337;SDS011;12457;50.832;4.346;2022-09-13T12:13:09;5.00;;;2.90;;
24337;SDS011;12457;50.832;4.346;2022-09-13T12:15:45;9.15;;;3.10;;
24337;SDS011;12457;50.832;4.346;2022-09-13T12:18:15;11.52;;;2.90;;
24337;SDS011;12457;50.832;4.346;2022-09-13T12:20:56;8.40;;;2.92;;
24337;SDS011;12457;50.832;4.346;2022-09-13T12:23:32;13.30;;;3.65;;
24337;SDS011;12457;50.832;4.346;2022-09-13T12:26:22;10.10;;;3.28;;
24337;SDS011;12457;50.832;4.346;2022-09-13T12:31:46;8.90;;;3.38;;
24337;SDS011;12457;50.832;4.346;2022-09-13T12:34:17;8.60;;;3.45;;
24337;SDS011;12457;50.832;4.346;2022-09-13T12:42:06;10.60;;;3.40;;
24337;SDS011;12457;50.832;4.346;2022-09-13T12:50:50;11.32;;;3.80;;
24337;SDS011;12457;50.832;4.346;2022-09-13T12:58:15;21.13;;;4.75;;
24337;SDS011;12457;50.832;4.346;2022-09-13T13:03:30;20.10;;;4.53;;
24337;SDS011;12457;50.832;4.346;2022-09-13T13:08:52;13.32;;;4.50;;
24337;SDS011;12457;50.832;4.346;2022-09-13T13:11:25;11.57;;;3.92;;
24337;SDS011;12457;50.832;4.346;2022-09-13T13:13:56;10.68;;;4.30;;
24337;SDS011;12457;50.832;4.346;2022-09-13T13:16:36;10.10;;;4.43;;
24337;SDS011;12457;50.832;4.346;2022-09-13T13:19:25;11.77;;;4.20;;
24337;SDS011;12457;50.832;4.346;2022-09-13T13:21:55;10.82;;;4.10;;
24337;SDS011;12457;50.832;4.346;2022-09-13T13:24:45;10.18;;;4.07;;
24337;SDS011;12457;50.832;4.346;2022-09-13T13:33:25;10.52;;;3.90;;
24337;SDS011;12457;50.832;4.346;2022-09-13T13:35:52;7.85;;;4.35;;
24337;SDS011;12457;50.832;4.346;2022-09-13T13:40:52;10.48;;;4.22;;
24337;SDS011;12457;50.832;4.346;2022-09-13T13:43:33;6.78;;;4.18;;
24337;SDS011;12457;50.832;4.346;2022-09-13T13:48:40;11.52;;;4.00;;
24337;SDS011;12457;50.832;4.346;2022-09-13T13:53:35;9.77;;;3.75;;
24337;SDS011;12457;50.832;4.346;2022-09-13T13:56:16;10.30;;;4.50;;
24337;SDS011;12457;50.832;4.346;2022-09-13T13:59:08;7.75;;;4.50;;
24337;SDS011;12457;50.832;4.346;2022-09-13T14:01:56;8.68;;;4.38;;
24337;SDS011;12457;50.832;4.346;2022-09-13T14:04:36;13.57;;;6.35;;
24337;SDS011;12457;50.832;4.346;2022-09-13T14:10:04;17.58;;;5.65;;
24337;SDS011;12457;50.832;4.346;2022-09-13T14:21:01;11.82;;;5.20;;
24337;SDS011;12457;50.832;4.346;2022-09-13T14:23:42;12.35;;;5.60;;
24337;SDS011;12457;50.832;4.346;2022-09-13T14:26:08;11.02;;;6.20;;
24337;SDS011;12457;50.832;4.346;2022-09-13T14:28:36;9.27;;;4.50;;
24337;SDS011;12457;50.832;4.346;2022-09-13T14:31:03;10.00;;;4.80;;
24337;SDS011;12457;50.832;4.346;2022-09-13T14:33:31;9.63;;;4.55;;
24337;SDS011;12457;50.832;4.346;2022-09-13T14:38:31;11.13;;;4.70;;
24337;SDS011;12457;50.832;4.346;2022-09-13T14:41:01;9.35;;;4.68;;
24337;SDS011;12457;50.832;4.346;2022-09-13T14:43:41;7.70;;;4.30;;
24337;SDS011;12457;50.832;4.346;2022-09-13T14:46:36;9.38;;;4.90;;
24337;SDS011;12457;50.832;4.346;2022-09-13T14:49:08;8.23;;;4.97;;
24337;SDS011;12457;50.832;4.346;2022-09-13T14:51:54;7.95;;;5.13;;
24337;SDS011;12457;50.832;4.346;2022-09-13T14:56:59;13.88;;;5.63;;
24337;SDS011;12457;50.832;4.346;2022-09-13T15:02:19;14.98;;;5.43;;
24337;SDS011;12457;50.832;4.346;2022-09-13T15:04:58;11.45;;;5.85;;
24337;SDS011;12457;50.832;4.346;2022-09-13T15:07:43;15.20;;;7.00;;
24337;SDS011;12457;50.832;4.346;2022-09-13T15:13:07;10.52;;;5.93;;
24337;SDS011;12457;50.832;4.346;2022-09-13T15:20:54;15.60;;;7.47;;
24337;SDS011;12457;50.832;4.346;2022-09-13T15:23:26;11.25;;;7.15;;
24337;SDS011;12457;50.832;4.346;2022-09-13T15:26:04;16.05;;;7.43;;
24337;SDS011;12457;50.832;4.346;2022-09-13T15:31:05;12.68;;;6.82;;
24337;SDS011;12457;50.832;4.346;2022-09-13T15:33:32;14.60;;;6.97;;
24337;SDS011;12457;50.832;4.346;2022-09-13T15:41:34;12.70;;;6.90;;
24337;SDS011;12457;50.832;4.346;2022-09-13T15:44:15;12.98;;;7.75;;
24337;SDS011;12457;50.832;4.346;2022-09-13T15:46:49;10.10;;;7.47;;
24337;SDS011;12457;50.832;4.346;2022-09-13T15:49:18;12.32;;;7.13;;
24337;SDS011;12457;50.832;4.346;2022-09-13T15:51:46;11.80;;;7.40;;
24337;SDS011;12457;50.832;4.346;2022-09-13T15:54:20;14.60;;;7.03;;
24337;SDS011;12457;50.832;4.346;2022-09-13T15:56:47;12.10;;;7.32;;
24337;SDS011;12457;50.832;4.346;2022-09-13T15:59:24;12.20;;;7.03;;
24337;SDS011;12457;50.832;4.346;2022-09-13T16:01:50;15.02;;;6.88;;
24337;SDS011;12457;50.832;4.346;2022-09-13T16:04:16;13.82;;;7.28;;
24337;SDS011;12457;50.832;4.346;2022-09-13T16:06:42;13.43;;;6.88;;
24337;SDS011;12457;50.832;4.346;2022-09-13T16:09:16;10.63;;;7.22;;
24337;SDS011;12457;50.832;4.346;2022-09-13T16:11:44;16.48;;;7.22;;
24337;SDS011;12457;50.832;4.346;2022-09-13T16:14:11;11.70;;;7.40;;
24337;SDS011;12457;50.832;4.346;2022-09-13T16:16:37;22.50;;;15.05;;
24337;SDS011;12457;50.832;4.346;2022-09-13T16:19:03;10.63;;;7.28;;
24337;SDS011;12457;50.832;4.346;2022-09-13T16:21:29;13.05;;;7.53;;
24337;SDS011;12457;50.832;4.346;2022-09-13T16:23:54;22.05;;;8.50;;
24337;SDS011;12457;50.832;4.346;2022-09-13T16:26:20;14.23;;;8.20;;
24337;SDS011;12457;50.832;4.346;2022-09-13T16:28:46;14.73;;;7.65;;
24337;SDS011;12457;50.832;4.346;2022-09-13T16:31:12;16.75;;;8.23;;
24337;SDS011;12457;50.832;4.346;2022-09-13T16:33:40;16.65;;;9.68;;
24337;SDS011;12457;50.832;4.346;2022-09-13T16:36:08;14.52;;;8.68;;
24337;SDS011;12457;50.832;4.346;2022-09-13T16:38:36;19.40;;;7.65;;
24337;SDS011;12457;50.832;4.346;2022-09-13T16:41:05;21.30;;;9.70;;
24337;SDS011;12457;50.832;4.346;2022-09-13T16:43:31;19.42;;;8.77;;
24337;SDS011;12457;50.832;4.346;2022-09-13T16:45:57;15.63;;;7.60;;
24337;SDS011;12457;50.832;4.346;2022-09-13T16:48:23;18.42;;;10.10;;
24337;SDS011;12457;50.832;4.346;2022-09-13T16:50:49;22.95;;;10.57;;
24337;SDS011;12457;50.832;4.346;2022-09-13T16:53:16;19.88;;;9.65;;
24337;SDS011;12457;50.832;4.346;2022-09-13T16:55:42;17.88;;;8.50;;
24337;SDS011;12457;50.832;4.346;2022-09-13T16:58:09;14.02;;;8.25;;
24337;SDS011;12457;50.832;4.346;2022-09-13T17:00:35;14.48;;;8.13;;
24337;SDS011;12457;50.832;4.346;2022-09-13T17:03:01;16.25;;;9.23;;
24337;SDS011;12457;50.832;4.346;2022-09-13T17:05:32;14.85;;;8.77;;
24337;SDS011;12457;50.832;4.346;2022-09-13T17:07:57;8.65;;;6.63;;
24337;SDS011;12457;50.832;4.346;2022-09-13T17:10:23;18.02;;;7.32;;
24337;SDS011;12457;50.832;4.346;2022-09-13T17:12:49;15.88;;;6.47;;
24337;SDS011;12457;50.832;4.346;2022-09-13T17:15:16;12.80;;;6.40;;
24337;SDS011;12457;50.832;4.346;2022-09-13T17:17:43;8.02;;;5.82;;
24337;SDS011;12457;50.832;4.346;2022-09-13T17:20:18;16.65;;;8.60;;
24337;SDS011;12457;50.832;4.346;2022-09-13T17:23:22;10.50;;;7.22;;
24337;SDS011;12457;50.832;4.346;2022-09-13T17:25:58;18.65;;;7.68;;
24337;SDS011;12457;50.832;4.346;2022-09-13T17:28:48;21.00;;;8.38;;
24337;SDS011;12457;50.832;4.346;2022-09-13T17:31:14;14.82;;;8.57;;
24337;SDS011;12457;50.832;4.346;2022-09-13T17:33:43;15.38;;;9.40;;
24337;SDS011;12457;50.832;4.346;2022-09-13T17:36:19;12.98;;;9.18;;
24337;SDS011;12457;50.832;4.346;2022-09-13T17:38:57;12.30;;;8.20;;
24337;SDS011;12457;50.832;4.346;2022-09-13T17:41:24;16.63;;;9.70;;
24337;SDS011;12457;50.832;4.346;2022-09-13T17:43:54;19.42;;;9.18;;
24337;SDS011;12457;50.832;4.346;2022-09-13T17:46:40;15.68;;;10.50;;
24337;SDS011;12457;50.832;4.346;2022-09-13T17:49:06;25.23;;;16.27;;
24337;SDS011;12457;50.832;4.346;2022-09-13T17:51:32;25.10;;;13.38;;
24337;SDS011;12457;50.832;4.346;2022-09-13T17:54:02;18.73;;;10.48;;
24337;SDS011;12457;50.832;4.346;2022-09-13T17:59:15;25.40;;;13.15;;
24337;SDS011;12457;50.832;4.346;2022-09-13T18:01:44;22.65;;;12.55;;
24337;SDS011;12457;50.832;4.346;2022-09-13T18:04:12;16.02;;;10.43;;
24337;SDS011;12457;50.832;4.346;2022-09-13T18:06:38;18.50;;;9.52;;
24337;SDS011;12457;50.832;4.346;2022-09-13T18:09:06;17.20;;;9.35;;
24337;SDS011;12457;50.832;4.346;2022-09-13T18:11:34;25.48;;;11.52;;
24337;SDS011;12457;50.832;4.346;2022-09-13T18:14:00;18.08;;;11.80;;
24337;SDS011;12457;50.832;4.346;2022-09-13T18:16:26;28.05;;;14.07;;
24337;SDS011;12457;50.832;4.346;2022-09-13T18:18:53;28.42;;;15.82;;
24337;SDS011;12457;50.832;4.346;2022-09-13T18:21:21;24.30;;;15.27;;
24337;SDS011;12457;50.832;4.346;2022-09-13T18:23:48;41.53;;;20.60;;
24337;SDS011;12457;50.832;4.346;2022-09-13T18:26:16;18.50;;;12.23;;
24337;SDS011;12457;50.832;4.346;2022-09-13T18:28:45;25.77;;;12.75;;
24337;SDS011;12457;50.832;4.346;2022-09-13T18:31:12;19.75;;;13.68;;
24337;SDS011;12457;50.832;4.346;2022-09-13T18:33:40;20.83;;;12.30;;
24337;SDS011;12457;50.832;4.346;2022-09-13T18:36:07;19.20;;;10.95;;
24337;SDS011;12457;50.832;4.346;2022-09-13T18:38:38;28.98;;;15.05;;
24337;SDS011;12457;50.832;4.346;2022-09-13T18:41:12;18.48;;;11.40;;
24337;SDS011;12457;50.832;4.346;2022-09-13T18:43:40;16.73;;;12.05;;